Time;durP1;ratioP1;P1;durP2;ratioP2;P2;SDS_P1;SDS_P2;PMS_P1;PMS_P2;Temp;Humidity;BMP_temperature;BMP_pressure;BME280_temperature;BME280_humidity;BME280_pressure;Samples;Min_cycle;Max_cycle;Signal;HPM_P1;HPM_P2
2023/04/23 07:01:22;;;;;;;0.90;0.90;;;15.30;99.90;19.00;100336.00;;;;6246329;23;20487;-69
2023/04/23 07:03:53;;;;;;;0.45;0.45;;;16.00;99.90;18.80;100349.00;;;;6221212;23;20201;-69
2023/04/23 07:06:44;;;;;;;0.10;0.10;;;16.40;99.90;19.80;100343.00;;;;6221835;23;20168;-69
2023/04/23 07:09:28;;;;;;;0.80;0.80;;;16.50;99.90;20.10;100372.00;;;;6195616;23;20236;-69
2023/04/23 07:12:35;;;;;;;0.28;0.28;;;17.20;99.90;21.80;100376.00;;;;6196071;23;20532;-69
2023/04/23 07:15:19;;;;;;;0.80;0.45;;;17.80;99.90;20.60;100413.00;;;;6155571;23;20158;-69
2023/04/23 07:18:31;;;;;;;1.85;0.35;;;18.10;99.90;20.20;100391.00;;;;6221255;23;20172;-69
2023/04/23 07:21:27;;;;;;;0.93;0.50;;;17.50;99.90;18.40;100361.00;;;;6180100;23;20169;-69
2023/04/23 07:23:55;;;;;;;0.95;0.43;;;16.70;99.90;18.90;100340.00;;;;6195791;23;20181;-69
2023/04/23 07:26:22;;;;;;;0.10;0.10;;;16.40;99.90;18.90;100341.00;;;;6221016;23;20566;-69
2023/04/23 07:29:06;;;;;;;0.10;0.10;;;16.40;99.90;18.50;100331.00;;;;6247302;23;20673;-70
2023/04/23 07:31:59;;;;;;;2.22;0.82;;;16.30;99.90;18.40;100320.00;;;;6221211;23;20142;-69
2023/04/23 07:35:18;;;;;;;0.60;0.52;;;16.10;99.90;21.40;100348.00;;;;6195631;23;20154;-69
2023/04/23 07:38:27;;;;;;;2.15;1.15;;;17.10;99.90;20.10;100376.00;;;;6071351;23;20165;-70
2023/04/23 07:41:04;;;;;;;0.55;0.47;;;17.90;99.90;18.30;100339.00;;;;6034328;23;20220;-69
2023/04/23 07:43:33;;;;;;;0.75;0.75;;;16.80;99.90;19.00;100333.00;;;;6238733;23;20181;-69
2023/04/23 07:46:43;;;;;;;0.43;0.43;;;16.60;99.90;19.70;100338.00;;;;6220839;23;20145;-70
2023/04/23 07:49:32;;;;;;;0.47;0.38;;;16.90;99.90;19.50;100324.00;;;;6197107;23;20181;-69
2023/04/23 07:52:01;;;;;;;0.55;0.55;;;17.00;99.90;18.70;100324.00;;;;6204784;23;20502;-69
2023/04/23 07:54:47;;;;;;;0.25;0.25;;;16.70;99.90;18.00;100278.00;;;;6247492;23;20589;-69
2023/04/23 07:57:35;;;;;;;0.10;0.10;;;16.30;99.90;18.10;100312.00;;;;6247375;23;20168;-69
2023/04/23 08:00:21;;;;;;;0.10;0.10;;;16.10;99.90;18.80;100306.00;;;;6214291;23;20209;-70
2023/04/23 08:03:17;;;;;;;0.15;0.15;;;16.20;99.90;18.90;100305.00;;;;6190387;23;20510;-69
2023/04/23 08:06:18;;;;;;;0.52;0.45;;;16.30;99.90;19.10;100311.00;;;;6194201;23;20150;-69
2023/04/23 08:08:44;;;;;;;0.30;0.30;;;16.70;99.90;19.00;100299.00;;;;6216858;23;20138;-69
2023/04/23 08:11:28;;;;;;;0.10;0.10;;;16.50;99.90;19.80;100319.00;;;;6215564;23;20147;-69
2023/04/23 08:14:11;;;;;;;1.02;0.15;;;17.10;99.90;20.00;100333.00;;;;6215569;23;20162;-69
2023/04/23 08:17:36;;;;;;;0.85;0.80;;;17.40;99.90;20.00;100334.00;;;;6215232;23;20212;-70
2023/04/23 08:20:22;;;;;;;0.20;0.20;;;17.40;99.90;21.00;100337.00;;;;6200617;23;20602;-69
2023/04/23 08:23:21;;;;;;;0.20;0.20;;;17.70;99.90;20.10;100356.00;;;;6215431;23;20186;-69
2023/04/23 08:26:30;;;;;;;0.77;0.77;;;17.80;99.90;20.50;100351.00;;;;6189912;23;20209;-69
2023/04/23 08:28:59;;;;;;;4.00;0.93;;;17.70;99.90;20.50;100366.00;;;;6198701;23;20170;-69
2023/04/23 08:31:48;;;;;;;2.15;0.80;;;17.90;99.90;20.20;100361.00;;;;6215112;23;20473;-70
2023/04/23 08:34:14;;;;;;;0.63;0.63;;;17.90;99.90;21.70;100364.00;;;;6202511;23;20646;-69
2023/04/23 08:36:40;;;;;;;1.10;1.05;;;18.50;99.90;21.00;100360.00;;;;6189900;23;20154;-70
2023/04/23 08:39:08;;;;;;;0.20;0.20;;;18.30;99.90;20.70;100387.00;;;;6216384;23;20567;-69
2023/04/23 08:41:46;;;;;;;2.05;0.65;;;18.30;99.90;20.30;100370.00;;;;6216562;23;20188;-70
2023/04/23 08:44:22;;;;;;;0.25;0.25;;;17.80;99.90;20.70;100356.00;;;;6214872;23;20155;-69
2023/04/23 08:46:48;;;;;;;0.22;0.22;;;17.70;99.90;21.00;100370.00;;;;6216645;23;20486;-70
2023/04/23 08:49:25;;;;;;;0.25;0.25;;;18.10;99.90;19.80;100380.00;;;;6214666;23;20134;-69
2023/04/23 08:51:59;;;;;;;0.20;0.20;;;17.70;99.90;20.20;100349.00;;;;6216483;23;20146;-69
2023/04/23 08:54:27;;;;;;;0.38;0.38;;;17.40;99.90;19.30;100348.00;;;;6215449;23;20138;-69
2023/04/23 08:56:59;;;;;;;2.50;0.30;;;17.20;99.90;19.40;100335.00;;;;6216563;23;20146;-70
2023/04/23 08:59:26;;;;;;;0.10;0.10;;;17.00;99.90;20.50;100335.00;;;;6214855;23;20500;-70
2023/04/23 09:01:53;;;;;;;0.38;0.38;;;17.40;99.90;20.80;100342.00;;;;6214808;23;20166;-69
2023/04/23 09:04:19;;;;;;;0.40;0.25;;;17.90;99.90;20.60;100355.00;;;;6214632;23;20209;-69
2023/04/23 09:06:45;;;;;;;0.10;0.10;;;18.00;99.90;19.70;100351.00;;;;6214943;23;20585;-69
2023/04/23 09:09:19;;;;;;;0.38;0.38;;;17.60;99.90;20.20;100324.00;;;;6214623;23;20571;-69
2023/04/23 09:11:44;;;;;;;0.20;0.20;;;17.40;99.90;20.00;100337.00;;;;6214962;23;20185;-69
2023/04/23 09:14:12;;;;;;;0.90;0.75;;;17.20;99.90;19.80;100336.00;;;;6214734;23;20150;-69
2023/04/23 09:16:41;;;;;;;0.57;0.47;;;17.20;99.90;19.70;100310.00;;;;6214305;23;20158;-69
2023/04/23 09:19:10;;;;;;;2.33;0.37;;;17.10;99.90;19.30;100320.00;;;;6214934;23;20146;-69
2023/04/23 09:21:41;;;;;;;0.25;0.25;;;16.90;99.90;19.80;100304.00;;;;6216206;23;20147;-69
2023/04/23 09:24:13;;;;;;;1.10;0.23;;;17.10;99.90;19.90;100314.00;;;;6190528;23;20162;-69
2023/04/23 09:26:50;;;;;;;0.20;0.20;;;17.20;99.90;19.70;100312.00;;;;6190413;23;20657;-69
2023/04/23 09:29:20;;;;;;;2.17;0.68;;;17.00;99.90;19.20;100334.00;;;;6214629;23;20158;-69
2023/04/23 09:31:48;;;;;;;1.27;0.82;;;17.10;99.90;19.60;100302.00;;;;6189890;23;20215;-69
2023/04/23 09:34:19;;;;;;;1.00;0.43;;;17.00;99.90;18.30;100301.00;;;;6215956;23;20146;-69
2023/04/23 09:36:50;;;;;;;1.80;1.03;;;16.50;99.90;19.00;100284.00;;;;6214336;23;20172;-69
2023/04/23 09:39:25;;;;;;;0.20;0.20;;;16.60;99.90;18.50;100290.00;;;;6214416;23;20568;-69
2023/04/23 09:41:52;;;;;;;0.53;0.53;;;16.40;99.90;19.40;100261.00;;;;6213903;23;20586;-69
2023/04/23 09:44:25;;;;;;;0.50;0.50;;;16.60;99.90;18.70;100289.00;;;;6214745;23;20157;-69
2023/04/23 09:46:51;;;;;;;2.27;0.40;;;16.50;99.90;19.30;100293.00;;;;6213920;23;20240;-69
2023/04/23 09:49:17;;;;;;;2.13;0.40;;;16.60;99.90;19.70;100285.00;;;;6189702;23;20513;-69
2023/04/23 09:51:46;;;;;;;0.30;0.30;;;16.70;99.90;18.40;100284.00;;;;6215975;23;20211;-69
2023/04/23 09:54:27;;;;;;;0.53;0.40;;;16.40;99.90;18.60;100222.00;;;;6214384;23;20570;-69
2023/04/23 09:57:25;;;;;;;2.22;0.60;;;16.20;99.90;18.40;100257.00;;;;6212905;23;20396;-69
2023/04/23 09:59:51;;;;;;;1.60;1.50;;;16.20;99.90;18.40;100246.00;;;;6213974;23;20171;-70
2023/04/23 10:02:28;;;;;;;2.00;0.87;;;16.20;99.90;18.90;100262.00;;;;6213843;23;20260;-69
2023/04/23 10:04:55;;;;;;;0.23;0.23;;;16.40;99.90;19.30;100249.00;;;;6189271;23;20159;-70
2023/04/23 10:07:21;;;;;;;0.30;0.30;;;16.40;99.90;19.00;100253.00;;;;6215665;23;20151;-70
2023/04/23 10:09:47;;;;;;;0.97;0.77;;;16.50;99.90;18.00;100259.00;;;;6215975;23;20140;-70
2023/04/23 10:12:14;;;;;;;0.40;0.37;;;16.10;99.90;18.40;100236.00;;;;6215950;23;20155;-71
2023/04/23 10:14:41;;;;;;;1.07;0.40;;;15.90;99.90;18.40;100229.00;;;;6213981;23;20591;-71
2023/04/23 10:17:09;;;;;;;1.90;0.47;;;16.00;99.90;18.80;100199.00;;;;6215356;23;20139;-71
2023/04/23 10:19:39;;;;;;;1.73;0.33;;;16.20;99.90;18.30;100242.00;;;;6214398;23;20153;-70
2023/04/23 10:33:30;;;;;;;2.73;1.07;;;15.90;99.90;18.70;100239.00;;;;5090119;27;20527;-68
2023/04/23 10:36:09;;;;;;;0.30;0.30;;;16.30;99.90;18.50;100218.00;;;;5069324;28;20203;-68
2023/04/23 10:38:38;;;;;;;2.80;0.43;;;16.40;99.90;19.10;100218.00;;;;5067899;28;20202;-68
2023/04/23 10:41:09;;;;;;;0.20;0.20;;;16.50;99.90;18.10;100196.00;;;;5069017;28;20752;-68
2023/04/23 10:43:45;;;;;;;0.30;0.30;;;16.20;99.90;18.10;100190.00;;;;5068843;28;20267;-68
2023/04/23 10:46:31;;;;;;;0.10;0.10;;;16.10;99.90;19.50;100195.00;;;;5068785;28;20189;-68
2023/04/23 10:49:16;;;;;;;0.10;0.10;;;16.20;99.90;19.70;100208.00;;;;5068757;28;20190;-68
2023/04/23 10:51:49;;;;;;;21.70;0.50;;;16.60;99.90;19.00;100199.00;;;;5064352;28;20559;-68
2023/04/23 10:54:16;;;;;;;0.20;0.20;;;16.40;99.90;18.70;100172.00;;;;5068236;28;20189;-68
2023/04/23 10:56:47;;;;;;;0.43;0.30;;;16.20;99.90;18.50;100159.00;;;;5068784;28;20177;-68
2023/04/23 10:59:21;;;;;;;0.20;0.20;;;16.00;99.90;17.90;100151.00;;;;5065561;28;20187;-68
2023/04/23 11:01:49;;;;;;;0.50;0.50;;;15.60;99.90;17.90;100164.00;;;;5069754;28;20195;-68
2023/04/23 11:04:28;;;;;;;0.10;0.10;;;15.50;99.90;18.30;100170.00;;;;5069563;28;20206;-68
2023/04/23 11:07:11;;;;;;;0.20;0.20;;;15.50;99.90;18.80;100167.00;;;;5069678;28;20201;-68
2023/04/23 11:09:44;;;;;;;0.20;0.20;;;15.80;99.90;18.10;100127.00;;;;5067940;28;20201;-68
2023/04/23 11:12:27;;;;;;;2.53;1.23;;;15.60;99.90;18.20;100155.00;;;;5068734;28;20569;-68
2023/04/23 11:14:54;;;;;;;0.20;0.20;;;15.60;99.90;17.90;100147.00;;;;5065843;28;20674;-68
2023/04/23 11:17:43;;;;;;;0.10;0.10;;;15.40;99.90;18.10;100156.00;;;;5048603;28;20575;-68
2023/04/23 11:20:13;;;;;;;0.10;0.10;;;15.40;99.90;18.20;100147.00;;;;5066762;28;20181;-68
2023/04/23 11:22:42;;;;;;;0.23;0.20;;;15.30;99.90;17.70;100144.00;;;;5068494;28;20181;-68
2023/04/23 11:25:11;;;;;;;0.10;0.10;;;15.20;99.90;18.20;100156.00;;;;5048920;28;20200;-68
2023/04/23 11:27:45;;;;;;;0.10;0.10;;;15.30;99.90;18.80;100150.00;;;;5051658;28;20186;-68
2023/04/23 11:30:12;;;;;;;0.10;0.10;;;15.50;99.90;18.80;100124.00;;;;5064657;28;20185;-68
2023/04/23 11:32:50;;;;;;;0.10;0.10;;;15.90;99.90;19.20;100153.00;;;;5067509;28;20217;-68
2023/04/23 11:35:27;;;;;;;0.10;0.10;;;16.10;99.90;18.50;100142.00;;;;5068530;28;20198;-68
2023/04/23 11:38:13;;;;;;;6.17;0.43;;;16.00;99.90;18.60;100135.00;;;;5067835;28;20565;-68
2023/04/23 11:40:45;;;;;;;0.20;0.20;;;16.10;99.90;19.20;100162.00;;;;5063840;28;20216;-68
2023/04/23 11:43:20;;;;;;;0.47;0.47;;;16.20;99.90;19.50;100164.00;;;;5062993;28;20274;-68
2023/04/23 11:45:48;;;;;;;1.40;0.40;;;16.30;99.90;18.20;100182.00;;;;5054338;28;20184;-68
2023/04/23 11:48:17;;;;;;;0.10;0.10;;;16.10;99.90;17.90;100158.00;;;;5054575;28;20181;-68
2023/04/23 11:50:43;;;;;;;0.20;0.20;;;15.80;99.90;18.90;100143.00;;;;5055607;28;20179;-68
2023/04/23 11:53:10;;;;;;;0.10;0.10;;;15.90;99.90;18.50;100139.00;;;;5054567;28;20280;-68
2023/04/23 11:55:42;;;;;;;0.20;0.20;;;15.80;99.90;18.50;100126.00;;;;5052558;28;20192;-68
2023/04/23 11:58:12;;;;;;;0.20;0.20;;;15.80;99.90;18.40;100107.00;;;;5054136;28;20244;-68
2023/04/23 12:00:37;;;;;;;0.20;0.20;;;15.70;99.90;18.60;100103.00;;;;5047510;28;20244;-68
2023/04/23 12:03:05;;;;;;;0.10;0.10;;;15.80;99.90;18.30;100100.00;;;;5055351;28;20195;-68
2023/04/23 12:05:39;;;;;;;0.10;0.10;;;15.70;99.90;18.60;100047.00;;;;5054383;28;20186;-68
2023/04/23 12:08:19;;;;;;;0.10;0.10;;;15.60;99.90;19.80;100111.00;;;;5054196;28;20183;-68
2023/04/23 12:10:54;;;;;;;0.30;0.30;;;16.00;99.90;19.10;100104.00;;;;5021548;28;20229;-68
2023/04/23 12:13:26;;;;;;;0.10;0.10;;;16.30;99.90;19.30;100110.00;;;;5053496;28;20214;-68
2023/04/23 12:16:03;;;;;;;0.57;0.57;;;16.40;99.90;19.10;100102.00;;;;5053945;28;20269;-68
2023/04/23 12:18:52;;;;;;;3.40;0.73;;;16.40;99.90;18.30;100090.00;;;;5054105;28;20184;-68
2023/04/23 12:21:49;;;;;;;0.20;0.20;;;16.00;99.90;19.10;100101.00;;;;5036478;28;20200;-68
2023/04/23 12:24:56;;;;;;;0.10;0.10;;;16.10;99.90;18.00;100094.00;;;;5053877;28;20184;-68
2023/04/23 12:27:48;;;;;;;0.10;0.10;;;15.90;99.90;17.70;100078.00;;;;5041550;28;20187;-68
2023/04/23 12:30:33;;;;;;;0.47;0.30;;;15.60;99.90;17.70;100079.00;;;;5063683;28;20186;-68
2023/04/23 12:33:17;;;;;;;0.10;0.10;;;15.30;99.90;17.70;100093.00;;;;5053411;28;20736;-68
2023/04/23 12:36:15;;;;;;;0.40;0.40;;;15.20;99.90;18.40;100091.00;;;;5053498;28;20194;-68
2023/04/23 12:39:24;;;;;;;0.30;0.30;;;15.40;99.90;17.30;100085.00;;;;5053493;28;20289;-68
2023/04/23 12:42:17;;;;;;;1.93;0.63;;;15.20;99.90;16.90;100081.00;;;;5053456;28;20680;-68
2023/04/23 12:45:24;;;;;;;0.73;0.73;;;14.90;99.90;17.10;100076.00;;;;5036900;28;20212;-68
2023/04/23 12:47:59;;;;;;;0.67;0.43;;;14.70;99.90;17.60;100025.00;;;;5046687;28;20186;-68
2023/04/23 12:50:28;;;;;;;0.40;0.40;;;14.80;99.90;17.60;100080.00;;;;5048262;28;20313;-68
2023/04/23 12:52:54;;;;;;;0.30;0.30;;;14.80;99.90;17.10;100061.00;;;;5052947;28;20648;-68
2023/04/23 12:55:43;;;;;;;0.27;0.27;;;14.70;99.90;16.80;100060.00;;;;5032351;28;20226;-68
2023/04/23 12:58:31;;;;;;;0.20;0.20;;;14.50;99.90;16.50;100014.00;;;;5052152;28;20256;-68
2023/04/23 13:00:57;;;;;;;0.20;0.20;;;14.20;99.90;16.70;100058.00;;;;5052638;28;20199;-68
2023/04/23 13:03:23;;;;;;;0.13;0.13;;;14.20;99.90;17.10;100051.00;;;;5054299;28;20643;-68
2023/04/23 13:05:52;;;;;;;0.33;0.33;;;14.20;99.90;16.20;100031.00;;;;5053175;28;20262;-68
2023/04/23 13:08:49;;;;;;;0.30;0.30;;;14.00;99.90;15.80;100027.00;;;;5053148;28;20187;-68
2023/04/23 13:11:38;;;;;;;0.60;0.60;;;13.70;99.90;16.30;100022.00;;;;5050411;28;20186;-68
2023/04/23 13:14:32;;;;;;;3.60;0.50;;;13.80;99.90;15.80;100012.00;;;;5053090;28;20270;-68
2023/04/23 13:17:35;;;;;;;1.37;0.30;;;13.70;99.90;15.80;99994.00;;;;5052670;28;20236;-68
2023/04/23 13:20:27;;;;;;;0.30;0.30;;;13.70;99.90;16.10;99949.00;;;;5033959;28;20191;-68
2023/04/23 13:23:35;;;;;;;0.17;0.17;;;13.60;99.90;16.30;99985.00;;;;5060739;28;20637;-68
2023/04/23 13:26:05;;;;;;;0.30;0.30;;;13.70;99.90;16.80;99978.00;;;;5031243;28;20211;-69
2023/04/23 13:29:30;;;;;;;0.87;0.80;;;13.80;99.90;16.90;99979.00;;;;5053897;28;20180;-69
2023/04/23 13:31:57;;;;;;;0.20;0.20;;;14.00;99.90;17.00;99969.00;;;;5032070;28;20228;-69
2023/04/23 13:34:26;;;;;;;0.40;0.40;;;14.00;99.90;16.90;99961.00;;;;5049530;28;20179;-69
2023/04/23 13:36:57;;;;;;;0.33;0.30;;;14.10;99.90;16.80;99954.00;;;;5053848;28;20236;-69
2023/04/23 13:39:23;;;;;;;0.20;0.20;;;14.20;99.90;16.90;99944.00;;;;5052256;28;20189;-68
2023/04/23 13:42:15;;;;;;;0.20;0.20;;;14.20;99.90;17.50;99949.00;;;;5053321;28;20239;-68
2023/04/23 13:44:46;;;;;;;0.70;0.70;;;14.40;99.90;16.90;99937.00;;;;5045133;28;20194;-68
2023/04/23 13:47:12;;;;;;;0.90;0.60;;;14.20;99.90;16.60;99931.00;;;;5050948;28;20275;-68
2023/04/23 13:49:46;;;;;;;0.40;0.40;;;14.10;99.90;16.60;99926.00;;;;5052233;28;20262;-68
2023/04/23 13:52:14;;;;;;;0.40;0.40;;;14.10;99.90;16.90;99928.00;;;;5053071;28;20202;-68
2023/04/23 13:54:41;;;;;;;0.83;0.50;;;14.10;99.90;16.60;99912.00;;;;5052040;28;20181;-68
2023/04/23 13:57:30;;;;;;;0.20;0.20;;;14.00;99.90;17.10;99898.00;;;;5050333;28;20187;-68
2023/04/23 13:59:57;;;;;;;0.77;0.60;;;14.20;99.90;17.20;99888.00;;;;5052295;28;20252;-68
2023/04/23 14:02:23;;;;;;;0.60;0.60;;;14.30;99.90;17.40;99892.00;;;;5053305;28;20195;-68
2023/04/23 14:04:58;;;;;;;1.20;1.10;;;14.30;99.90;16.30;99889.00;;;;5052239;28;20186;-68
2023/04/23 14:07:26;;;;;;;2.93;0.80;;;14.10;99.90;17.10;99880.00;;;;5051383;28;20714;-68
2023/04/23 14:10:35;;;;;;;4.40;1.03;;;14.20;99.90;17.70;99876.00;;;;5052868;28;20650;-68
2023/04/23 14:13:03;;;;;;;0.20;0.20;;;14.50;99.90;16.90;99862.00;;;;5047791;28;20206;-68
2023/04/23 14:15:38;;;;;;;0.23;0.23;;;14.40;99.90;16.90;99851.00;;;;5051897;28;20187;-68
2023/04/23 14:18:31;;;;;;;2.30;0.87;;;14.30;99.90;17.10;99854.00;;;;5051774;28;20188;-68
2023/04/23 14:21:23;;;;;;;0.40;0.40;;;14.30;99.90;16.90;99863.00;;;;5047791;28;20177;-68
2023/04/23 14:23:55;;;;;;;0.20;0.20;;;14.30;99.90;17.50;99849.00;;;;5034783;28;20200;-68
2023/04/23 14:26:43;;;;;;;2.97;1.20;;;14.30;99.90;16.20;99854.00;;;;5051996;28;20550;-67
2023/04/23 14:29:29;;;;;;;0.30;0.30;;;14.10;99.90;16.10;99832.00;;;;5048033;28;20186;-68
2023/04/23 14:31:55;;;;;;;0.43;0.43;;;13.90;99.90;16.80;99827.00;;;;5051332;28;20229;-67
2023/04/23 14:34:22;;;;;;;0.30;0.30;;;13.90;99.90;16.40;99838.00;;;;5051900;28;20187;-68
2023/04/23 14:36:51;;;;;;;0.97;0.93;;;14.00;99.90;16.60;99824.00;;;;5051556;28;20664;-67
2023/04/23 14:42:26;;;;;;;0.60;0.60;;;13.90;99.90;16.80;99796.00;;;;5039538;28;20202;-68
2023/04/23 14:44:55;;;;;;;0.50;0.50;;;13.90;99.90;16.90;99760.00;;;;5052946;28;20184;-68
2023/04/23 14:47:46;;;;;;;0.17;0.17;;;14.10;99.90;17.40;99803.00;;;;5052775;28;20608;-68
2023/04/23 14:50:40;;;;;;;0.50;0.50;;;14.30;99.90;17.00;99788.00;;;;5035647;28;20193;-68
2023/04/23 14:53:27;;;;;;;0.20;0.20;;;14.40;99.90;17.60;99803.00;;;;5051873;28;20205;-68
2023/04/23 14:56:11;;;;;;;0.50;0.50;;;14.50;99.90;17.60;99729.00;;;;5036847;28;20667;-68
2023/04/23 14:59:20;;;;;;;0.73;0.73;;;14.70;99.90;17.80;99788.00;;;;5050591;28;20657;-68
2023/04/23 15:01:49;;;;;;;0.50;0.50;;;14.60;99.90;17.40;99762.00;;;;5046595;28;20562;-68
2023/04/23 15:04:35;;;;;;;0.20;0.20;;;14.50;99.90;17.50;99768.00;;;;5051510;28;20197;-68
2023/04/23 15:07:08;;;;;;;0.47;0.47;;;14.60;99.90;17.90;99767.00;;;;5050982;28;20184;-68
2023/04/23 15:09:34;;;;;;;0.20;0.20;;;14.70;99.90;17.20;99757.00;;;;5051143;28;20379;-68
2023/04/23 15:12:02;;;;;;;0.30;0.30;;;14.70;99.90;17.70;99757.00;;;;5051262;28;20302;-68
2023/04/23 15:14:36;;;;;;;0.77;0.77;;;14.70;99.90;17.90;99765.00;;;;5052400;28;20206;-68
2023/04/23 15:17:44;;;;;;;1.17;0.93;;;14.80;99.90;17.10;99741.00;;;;5051415;28;20252;-68
2023/04/23 15:20:18;;;;;;;0.53;0.53;;;14.70;99.90;17.20;99695.00;;;;5055076;28;20253;-68
2023/04/23 15:23:13;;;;;;;1.63;1.53;;;14.70;99.90;17.20;99733.00;;;;5055045;28;20528;-68
2023/04/23 15:26:04;;;;;;;0.70;0.70;;;14.60;99.90;17.60;99688.00;;;;5054519;28;20198;-68
2023/04/23 15:28:44;;;;;;;0.50;0.50;;;14.60;99.90;17.40;99725.00;;;;5054661;28;20188;-68
2023/04/23 15:31:14;;;;;;;1.10;0.97;;;14.50;99.90;17.60;99717.00;;;;5054688;28;20179;-68
2023/04/23 15:33:41;;;;;;;0.20;0.20;;;14.70;99.90;17.70;99669.00;;;;5054717;28;20254;-68
2023/04/23 15:36:42;;;;;;;1.87;1.73;;;14.70;99.90;17.00;99703.00;;;;5053794;28;20190;-68
2023/04/23 15:39:45;;;;;;;2.23;2.13;;;14.50;99.90;17.00;99699.00;;;;5054390;28;20181;-68
2023/04/23 15:42:26;;;;;;;0.87;0.87;;;14.60;99.90;17.60;99691.00;;;;5054908;28;20201;-68
2023/04/23 15:44:59;;;;;;;1.30;0.60;;;14.60;99.90;17.60;99692.00;;;;5037440;28;20772;-68
2023/04/23 15:47:37;;;;;;;1.17;1.17;;;14.70;99.90;17.60;99692.00;;;;5054608;28;20188;-68
2023/04/23 15:51:03;;;;;;;0.33;0.33;;;14.70;99.90;17.40;99668.00;;;;5054122;28;20174;-68
2023/04/23 15:53:37;;;;;;;0.40;0.40;;;14.80;99.90;17.90;99681.00;;;;5027035;28;20561;-68
2023/04/23 15:56:24;;;;;;;0.40;0.40;;;14.80;99.90;17.80;99655.00;;;;5051683;28;20195;-67
2023/04/23 15:59:13;;;;;;;0.90;0.90;;;14.90;99.90;17.50;99647.00;;;;5051375;28;20182;-68
2023/04/23 16:02:13;;;;;;;0.55;0.55;;;14.80;99.90;17.70;99640.00;;;;5055012;28;20432;-68
2023/04/23 16:04:50;;;;;;;0.50;0.50;;;14.70;99.90;17.50;99603.00;;;;5054094;28;20193;-68
2023/04/23 16:07:31;;;;;;;0.27;0.27;;;14.70;99.90;17.20;99614.00;;;;5054221;28;20188;-68
2023/04/23 16:10:23;;;;;;;0.53;0.53;;;14.50;99.90;17.30;99614.00;;;;5054363;28;20229;-68
2023/04/23 16:13:15;;;;;;;1.50;0.87;;;14.60;99.90;17.20;99600.00;;;;5033315;28;20211;-68
2023/04/23 16:16:19;;;;;;;0.63;0.63;;;14.40;99.90;17.50;99601.00;;;;5023415;28;20179;-68
2023/04/23 16:18:54;;;;;;;0.80;0.80;;;14.50;99.90;16.90;99583.00;;;;5019123;28;20656;-68
2023/04/23 16:21:46;;;;;;;0.97;0.97;;;14.30;99.90;17.00;99572.00;;;;5055437;28;20281;-68
2023/04/23 16:24:55;;;;;;;0.87;0.53;;;14.30;99.90;16.70;99565.00;;;;5054308;28;20657;-68
2023/04/23 16:27:29;;;;;;;1.03;0.97;;;14.00;99.90;16.30;99499.00;;;;5053135;28;20292;-68
2023/04/23 16:30:17;;;;;;;0.50;0.50;;;13.90;99.90;17.00;99538.00;;;;5054041;28;20261;-68
2023/04/23 16:33:12;;;;;;;0.50;0.50;;;14.00;99.90;16.30;99526.00;;;;5050307;28;20685;-68
2023/04/23 16:36:01;;;;;;;4.27;0.93;;;14.00;99.90;16.70;99514.00;;;;5049498;28;20696;-68
2023/04/23 16:38:53;;;;;;;1.17;0.70;;;13.90;99.90;17.10;99515.00;;;;5053534;28;20232;-68
2023/04/23 16:42:01;;;;;;;0.67;0.67;;;14.00;99.90;17.20;99513.00;;;;4996780;28;20246;-68
2023/04/23 16:45:07;;;;;;;0.50;0.50;;;14.10;99.90;17.20;99513.00;;;;4995386;28;20203;-68
2023/04/23 16:47:56;;;;;;;6.70;0.70;;;14.30;99.90;17.60;99495.00;;;;5007621;28;20286;-68
2023/04/23 16:50:45;;;;;;;0.20;0.20;;;14.30;99.90;17.20;99496.00;;;;4990168;28;20270;-68
2023/04/23 16:53:43;;;;;;;0.50;0.50;;;14.40;99.90;17.60;99502.00;;;;4957375;28;20316;-68
2023/04/23 16:56:35;;;;;;;0.20;0.20;;;14.40;99.90;17.80;99490.00;;;;4934869;29;20709;-68
2023/04/23 16:59:30;;;;;;;0.20;0.20;;;14.40;99.90;16.70;99511.00;;;;4873178;29;20652;-68
2023/04/23 17:02:22;;;;;;;0.70;0.70;;;14.10;99.90;15.50;99477.00;;;;4890552;29;20241;-68
2023/04/23 17:05:19;;;;;;;0.40;0.40;;;13.80;99.90;15.60;99459.00;;;;5006044;28;20554;-69
2023/04/23 17:08:21;;;;;;;0.60;0.60;;;13.40;99.90;16.40;99438.00;;;;5053074;28;20190;-69
2023/04/23 17:10:56;;;;;;;0.80;0.80;;;13.30;99.90;15.60;99432.00;;;;5054465;28;20259;-69
2023/04/23 17:13:50;;;;;;;1.00;1.00;;;13.20;99.90;15.20;99415.00;;;;5053838;28;20800;-69
2023/04/23 17:16:55;;;;;;;0.80;0.80;;;13.00;99.90;15.30;99423.00;;;;5048390;28;20186;-68
2023/04/23 17:19:47;;;;;;;0.90;0.90;;;12.90;99.90;15.20;99425.00;;;;5032478;28;20186;-68
2023/04/23 17:22:57;;;;;;;0.77;0.77;;;12.90;99.90;15.30;99422.00;;;;4976627;28;20203;-68
2023/04/23 17:25:49;;;;;;;0.90;0.90;;;12.90;99.90;14.70;99418.00;;;;4975996;28;20195;-68
2023/04/23 17:28:58;;;;;;;7.83;1.03;;;12.80;99.90;15.00;99416.00;;;;4971511;28;20594;-68
2023/04/23 17:31:50;;;;;;;0.60;0.60;;;12.80;99.90;14.80;99407.00;;;;4975183;28;20241;-69
2023/04/23 17:34:45;;;;;;;0.70;0.70;;;12.70;99.90;15.30;99409.00;;;;5040128;28;20199;-68
2023/04/23 17:37:21;;;;;;;0.50;0.50;;;12.70;99.90;14.80;99365.00;;;;5028313;28;20209;-68
2023/04/23 17:40:19;;;;;;;0.80;0.80;;;12.60;99.90;15.00;99411.00;;;;5052414;28;20241;-68
2023/04/23 17:43:43;;;;;;;1.13;1.13;;;12.70;99.90;14.70;99414.00;;;;5037705;28;20197;-68
2023/04/23 17:46:48;;;;;;;0.60;0.60;;;12.50;99.90;14.90;99412.00;;;;5052210;28;20181;-67
2023/04/23 17:49:43;;;;;;;0.80;0.80;;;12.50;99.90;14.00;99396.00;;;;5037161;28;20203;-68
2023/04/23 17:52:31;;;;;;;0.60;0.60;;;12.20;99.90;14.10;99392.00;;;;5011309;28;20217;-68
2023/04/23 17:55:20;;;;;;;0.50;0.50;;;12.00;99.90;14.40;99380.00;;;;5004316;28;20278;-68
2023/04/23 17:58:57;;;;;;;0.60;0.60;;;11.90;99.90;14.00;99394.00;;;;5039596;28;20307;-68
2023/04/23 18:01:48;;;;;;;1.30;0.83;;;11.80;99.90;13.50;99388.00;;;;5031181;28;20551;-68
2023/04/23 18:04:58;;;;;;;0.70;0.70;;;11.70;99.90;13.90;99368.00;;;;5031800;28;20727;-68
2023/04/23 18:07:46;;;;;;;0.80;0.80;;;11.70;99.90;13.90;99377.00;;;;5037728;28;20259;-68
2023/04/23 18:10:36;;;;;;;0.60;0.60;;;11.70;99.90;14.50;99380.00;;;;5034078;28;20186;-68
2023/04/23 18:13:25;;;;;;;0.60;0.60;;;11.70;99.90;14.00;99330.00;;;;4993062;28;20769;-68
2023/04/23 18:16:14;;;;;;;0.50;0.50;;;11.60;99.90;13.90;99369.00;;;;4972154;28;20653;-68
2023/04/23 18:19:24;;;;;;;0.60;0.60;;;11.60;99.90;13.90;99384.00;;;;5050225;28;20175;-68
2023/04/23 18:22:13;;;;;;;0.50;0.50;;;11.50;99.90;14.20;99381.00;;;;4986476;28;20196;-68
2023/04/23 18:25:11;;;;;;;0.60;0.60;;;11.60;99.90;14.40;99390.00;;;;5040994;28;20186;-68
2023/04/23 18:27:59;;;;;;;0.60;0.60;;;11.70;99.90;13.80;99388.00;;;;5051873;28;20192;-67
2023/04/23 18:31:00;;;;;;;0.60;0.60;;;11.60;99.90;14.00;99392.00;;;;5031355;28;20228;-68
2023/04/23 18:33:50;;;;;;;0.50;0.50;;;11.60;99.90;13.80;99393.00;;;;5044901;28;20329;-68
2023/04/23 18:36:31;;;;;;;0.60;0.60;;;11.60;99.90;14.20;99415.00;;;;5019117;28;20281;-67
2023/04/23 18:39:29;;;;;;;0.93;0.93;;;11.60;99.90;14.90;99427.00;;;;5034831;28;20187;-68
2023/04/23 18:42:35;;;;;;;0.63;0.63;;;11.90;99.90;14.60;99456.00;;;;5048765;28;20211;-68
2023/04/23 18:45:28;;;;;;;1.27;1.20;;;12.00;99.90;13.20;99472.00;;;;5049190;28;20206;-68
2023/04/23 18:48:40;;;;;;;1.63;1.53;;;11.70;99.90;12.60;99427.00;;;;5022151;28;20206;-68
2023/04/23 18:51:43;;;;;;;1.50;1.30;;;11.20;99.90;12.40;99499.00;;;;5024581;28;20527;-68
2023/04/23 18:54:35;;;;;;;1.73;1.63;;;11.00;99.90;12.60;99504.00;;;;5016973;28;20194;-68
2023/04/23 18:57:22;;;;;;;3.77;3.17;;;11.10;99.90;12.30;99473.00;;;;5054867;28;20626;-68
2023/04/23 19:00:09;;;;;;;11.67;5.33;;;10.90;99.90;12.80;99546.00;;;;5055324;28;20623;-68
2023/04/23 19:03:13;;;;;;;7.40;5.60;;;10.90;99.90;12.10;99539.00;;;;5056003;28;20200;-68
2023/04/23 19:06:35;;;;;;;5.27;3.87;;;10.70;99.90;12.30;99569.00;;;;5036632;28;20205;-68
2023/04/23 19:09:42;;;;;;;7.80;5.47;;;10.70;99.90;12.30;99586.00;;;;5038919;28;20218;-68
2023/04/23 19:12:40;;;;;;;3.50;3.30;;;10.60;99.90;12.80;99589.00;;;;5045910;28;20210;-68
2023/04/23 19:15:29;;;;;;;5.97;5.43;;;10.70;99.90;12.00;99597.00;;;;5032529;28;20181;-68